sensor_id;sensor_type;location;lat;lon;timestamp;P1;durP1;ratioP1;P2;durP2;ratioP2
22916;SDS011;11624;53.250;7.456;2022-11-14T00:02:00;45.67;;;25.20;;
22916;SDS011;11624;53.250;7.456;2022-11-14T00:04:47;49.08;;;25.85;;
22916;SDS011;11624;53.250;7.456;2022-11-14T00:07:34;50.63;;;25.83;;
22916;SDS011;11624;53.250;7.456;2022-11-14T00:10:21;50.22;;;25.48;;
22916;SDS011;11624;53.250;7.456;2022-11-14T00:13:08;50.00;;;26.77;;
22916;SDS011;11624;53.250;7.456;2022-11-14T00:15:56;50.63;;;27.25;;
22916;SDS011;11624;53.250;7.456;2022-11-14T00:18:43;45.08;;;25.40;;
22916;SDS011;11624;53.250;7.456;2022-11-14T00:21:30;52.85;;;26.42;;
22916;SDS011;11624;53.250;7.456;2022-11-14T00:24:16;55.65;;;25.95;;
22916;SDS011;11624;53.250;7.456;2022-11-14T00:27:03;48.03;;;24.88;;
22916;SDS011;11624;53.250;7.456;2022-11-14T00:29:50;46.30;;;24.65;;
22916;SDS011;11624;53.250;7.456;2022-11-14T00:32:38;50.10;;;26.35;;
22916;SDS011;11624;53.250;7.456;2022-11-14T00:35:25;49.08;;;25.70;;
22916;SDS011;11624;53.250;7.456;2022-11-14T00:38:12;48.53;;;26.58;;
22916;SDS011;11624;53.250;7.456;2022-11-14T00:40:59;47.38;;;24.48;;
22916;SDS011;11624;53.250;7.456;2022-11-14T00:43:46;47.47;;;26.08;;
22916;SDS011;11624;53.250;7.456;2022-11-14T00:46:33;51.50;;;25.73;;
22916;SDS011;11624;53.250;7.456;2022-11-14T00:49:22;52.45;;;26.70;;
22916;SDS011;11624;53.250;7.456;2022-11-14T00:52:09;45.55;;;24.58;;
22916;SDS011;11624;53.250;7.456;2022-11-14T00:54:56;52.50;;;25.83;;
22916;SDS011;11624;53.250;7.456;2022-11-14T00:57:43;51.03;;;24.85;;
22916;SDS011;11624;53.250;7.456;2022-11-14T01:00:30;47.63;;;25.90;;
22916;SDS011;11624;53.250;7.456;2022-11-14T01:03:17;49.97;;;25.58;;
22916;SDS011;11624;53.250;7.456;2022-11-14T01:06:06;47.70;;;24.17;;
22916;SDS011;11624;53.250;7.456;2022-11-14T01:08:54;50.72;;;25.92;;
22916;SDS011;11624;53.250;7.456;2022-11-14T01:11:41;51.15;;;26.60;;
22916;SDS011;11624;53.250;7.456;2022-11-14T01:14:27;49.05;;;25.10;;
22916;SDS011;11624;53.250;7.456;2022-11-14T01:17:14;49.97;;;25.77;;
22916;SDS011;11624;53.250;7.456;2022-11-14T01:20:00;48.95;;;24.70;;
22916;SDS011;11624;53.250;7.456;2022-11-14T01:22:49;52.45;;;26.83;;
22916;SDS011;11624;53.250;7.456;2022-11-14T01:25:36;53.05;;;26.58;;
22916;SDS011;11624;53.250;7.456;2022-11-14T01:28:24;54.50;;;26.65;;
22916;SDS011;11624;53.250;7.456;2022-11-14T01:31:12;54.67;;;27.50;;
22916;SDS011;11624;53.250;7.456;2022-11-14T01:34:00;54.42;;;27.38;;
22916;SDS011;11624;53.250;7.456;2022-11-14T01:36:48;59.30;;;28.35;;
22916;SDS011;11624;53.250;7.456;2022-11-14T01:39:36;54.83;;;28.38;;
22916;SDS011;11624;53.250;7.456;2022-11-14T01:42:23;58.70;;;28.90;;
22916;SDS011;11624;53.250;7.456;2022-11-14T01:48:36;54.95;;;28.45;;
22916;SDS011;11624;53.250;7.456;2022-11-14T01:51:27;58.33;;;29.65;;
22916;SDS011;11624;53.250;7.456;2022-11-14T01:54:17;60.88;;;30.40;;
22916;SDS011;11624;53.250;7.456;2022-11-14T01:57:09;58.42;;;29.73;;
22916;SDS011;11624;53.250;7.456;2022-11-14T01:59:59;57.20;;;30.00;;
22916;SDS011;11624;53.250;7.456;2022-11-14T02:02:51;61.90;;;31.70;;
22916;SDS011;11624;53.250;7.456;2022-11-14T02:05:38;64.60;;;30.90;;
22916;SDS011;11624;53.250;7.456;2022-11-14T02:08:26;61.53;;;32.50;;
22916;SDS011;11624;53.250;7.456;2022-11-14T02:11:13;60.17;;;30.98;;
22916;SDS011;11624;53.250;7.456;2022-11-14T02:14:01;60.10;;;31.70;;
22916;SDS011;11624;53.250;7.456;2022-11-14T02:16:48;55.83;;;29.40;;
22916;SDS011;11624;53.250;7.456;2022-11-14T02:22:51;61.58;;;32.78;;
22916;SDS011;11624;53.250;7.456;2022-11-14T02:25:38;56.25;;;29.35;;
22916;SDS011;11624;53.250;7.456;2022-11-14T02:28:26;57.03;;;31.48;;
22916;SDS011;11624;53.250;7.456;2022-11-14T02:31:13;59.38;;;31.70;;
22916;SDS011;11624;53.250;7.456;2022-11-14T02:34:00;60.63;;;30.85;;
22916;SDS011;11624;53.250;7.456;2022-11-14T02:36:48;61.75;;;31.13;;
22916;SDS011;11624;53.250;7.456;2022-11-14T02:39:35;58.83;;;31.67;;
22916;SDS011;11624;53.250;7.456;2022-11-14T02:42:23;60.08;;;30.95;;
22916;SDS011;11624;53.250;7.456;2022-11-14T02:45:09;57.00;;;30.95;;
22916;SDS011;11624;53.250;7.456;2022-11-14T02:47:57;56.03;;;30.95;;
22916;SDS011;11624;53.250;7.456;2022-11-14T02:50:46;57.33;;;31.48;;
22916;SDS011;11624;53.250;7.456;2022-11-14T02:53:35;54.92;;;29.58;;
22916;SDS011;11624;53.250;7.456;2022-11-14T02:56:21;53.05;;;28.77;;
22916;SDS011;11624;53.250;7.456;2022-11-14T02:59:08;52.53;;;29.90;;
22916;SDS011;11624;53.250;7.456;2022-11-14T03:01:55;52.45;;;28.58;;
22916;SDS011;11624;53.250;7.456;2022-11-14T03:04:42;48.67;;;26.83;;
22916;SDS011;11624;53.250;7.456;2022-11-14T03:07:28;55.33;;;27.55;;
22916;SDS011;11624;53.250;7.456;2022-11-14T03:10:17;53.75;;;28.35;;
22916;SDS011;11624;53.250;7.456;2022-11-14T03:13:04;49.25;;;27.35;;
22916;SDS011;11624;53.250;7.456;2022-11-14T03:15:51;53.03;;;29.00;;
22916;SDS011;11624;53.250;7.456;2022-11-14T03:18:37;50.33;;;27.90;;
22916;SDS011;11624;53.250;7.456;2022-11-14T03:21:24;48.97;;;26.65;;
22916;SDS011;11624;53.250;7.456;2022-11-14T03:24:11;52.70;;;26.45;;
22916;SDS011;11624;53.250;7.456;2022-11-14T03:26:59;50.00;;;25.23;;
22916;SDS011;11624;53.250;7.456;2022-11-14T03:29:46;52.80;;;27.00;;
22916;SDS011;11624;53.250;7.456;2022-11-14T03:32:33;49.08;;;26.65;;
22916;SDS011;11624;53.250;7.456;2022-11-14T03:35:19;51.55;;;26.15;;
22916;SDS011;11624;53.250;7.456;2022-11-14T03:38:06;50.28;;;27.33;;
22916;SDS011;11624;53.250;7.456;2022-11-14T03:40:53;52.33;;;27.55;;
22916;SDS011;11624;53.250;7.456;2022-11-14T03:43:41;51.30;;;28.10;;
22916;SDS011;11624;53.250;7.456;2022-11-14T03:46:28;52.80;;;27.70;;
22916;SDS011;11624;53.250;7.456;2022-11-14T03:49:14;50.50;;;25.48;;
22916;SDS011;11624;53.250;7.456;2022-11-14T03:52:01;54.00;;;29.45;;
22916;SDS011;11624;53.250;7.456;2022-11-14T03:54:48;50.08;;;27.73;;
22916;SDS011;11624;53.250;7.456;2022-11-14T03:57:35;56.60;;;28.92;;
22916;SDS011;11624;53.250;7.456;2022-11-14T04:00:23;55.60;;;28.52;;
22916;SDS011;11624;53.250;7.456;2022-11-14T04:03:11;49.58;;;26.13;;
22916;SDS011;11624;53.250;7.456;2022-11-14T04:05:58;51.08;;;27.95;;
22916;SDS011;11624;53.250;7.456;2022-11-14T04:08:45;52.67;;;26.73;;
22916;SDS011;11624;53.250;7.456;2022-11-14T04:11:32;54.42;;;27.27;;
22916;SDS011;11624;53.250;7.456;2022-11-14T04:14:19;47.90;;;25.40;;
22916;SDS011;11624;53.250;7.456;2022-11-14T04:17:07;48.78;;;26.23;;
22916;SDS011;11624;53.250;7.456;2022-11-14T04:19:53;53.25;;;26.15;;
22916;SDS011;11624;53.250;7.456;2022-11-14T04:22:40;53.42;;;27.27;;
22916;SDS011;11624;53.250;7.456;2022-11-14T04:25:27;53.10;;;27.45;;
22916;SDS011;11624;53.250;7.456;2022-11-14T04:28:13;50.63;;;26.17;;
22916;SDS011;11624;53.250;7.456;2022-11-14T04:31:00;51.72;;;25.40;;
22916;SDS011;11624;53.250;7.456;2022-11-14T04:33:49;49.97;;;27.05;;
22916;SDS011;11624;53.250;7.456;2022-11-14T04:36:36;50.05;;;27.25;;
22916;SDS011;11624;53.250;7.456;2022-11-14T04:39:23;49.15;;;27.40;;
22916;SDS011;11624;53.250;7.456;2022-11-14T04:42:09;50.53;;;26.45;;
22916;SDS011;11624;53.250;7.456;2022-11-14T04:44:56;54.13;;;28.88;;
22916;SDS011;11624;53.250;7.456;2022-11-14T04:47:43;49.63;;;26.85;;
22916;SDS011;11624;53.250;7.456;2022-11-14T04:50:31;54.97;;;27.40;;
22916;SDS011;11624;53.250;7.456;2022-11-14T04:53:18;52.40;;;26.63;;
22916;SDS011;11624;53.250;7.456;2022-11-14T04:56:05;52.47;;;27.92;;
22916;SDS011;11624;53.250;7.456;2022-11-14T04:58:52;49.72;;;26.88;;
22916;SDS011;11624;53.250;7.456;2022-11-14T05:01:39;54.17;;;28.00;;
22916;SDS011;11624;53.250;7.456;2022-11-14T05:04:26;52.60;;;28.42;;
22916;SDS011;11624;53.250;7.456;2022-11-14T05:07:14;55.90;;;28.83;;
22916;SDS011;11624;53.250;7.456;2022-11-14T05:10:01;51.63;;;27.33;;
22916;SDS011;11624;53.250;7.456;2022-11-14T05:12:51;53.28;;;27.42;;
22916;SDS011;11624;53.250;7.456;2022-11-14T05:15:38;52.42;;;28.05;;
22916;SDS011;11624;53.250;7.456;2022-11-14T05:18:25;54.97;;;28.15;;
22916;SDS011;11624;53.250;7.456;2022-11-14T05:21:13;51.55;;;27.55;;
22916;SDS011;11624;53.250;7.456;2022-11-14T05:24:02;52.80;;;27.90;;
22916;SDS011;11624;53.250;7.456;2022-11-14T05:26:49;56.47;;;27.63;;
22916;SDS011;11624;53.250;7.456;2022-11-14T05:29:36;59.30;;;28.83;;
22916;SDS011;11624;53.250;7.456;2022-11-14T05:32:23;56.45;;;28.17;;
22916;SDS011;11624;53.250;7.456;2022-11-14T05:35:09;55.70;;;28.33;;
22916;SDS011;11624;53.250;7.456;2022-11-14T05:37:56;50.80;;;27.02;;
22916;SDS011;11624;53.250;7.456;2022-11-14T05:40:47;51.80;;;27.55;;
22916;SDS011;11624;53.250;7.456;2022-11-14T05:43:33;50.88;;;26.75;;
22916;SDS011;11624;53.250;7.456;2022-11-14T05:46:20;51.88;;;27.60;;
22916;SDS011;11624;53.250;7.456;2022-11-14T05:49:07;54.78;;;28.08;;
22916;SDS011;11624;53.250;7.456;2022-11-14T05:51:53;54.90;;;28.60;;
22916;SDS011;11624;53.250;7.456;2022-11-14T05:54:40;54.92;;;29.15;;
22916;SDS011;11624;53.250;7.456;2022-11-14T05:57:29;59.78;;;28.92;;
22916;SDS011;11624;53.250;7.456;2022-11-14T06:00:16;53.50;;;28.65;;
22916;SDS011;11624;53.250;7.456;2022-11-14T06:03:03;54.60;;;27.60;;
22916;SDS011;11624;53.250;7.456;2022-11-14T06:05:49;52.17;;;27.98;;
22916;SDS011;11624;53.250;7.456;2022-11-14T06:08:36;53.08;;;27.63;;
22916;SDS011;11624;53.250;7.456;2022-11-14T06:11:23;56.10;;;28.08;;
22916;SDS011;11624;53.250;7.456;2022-11-14T06:14:11;57.90;;;28.23;;
22916;SDS011;11624;53.250;7.456;2022-11-14T06:16:58;59.33;;;28.20;;
22916;SDS011;11624;53.250;7.456;2022-11-14T06:19:45;52.47;;;27.37;;
22916;SDS011;11624;53.250;7.456;2022-11-14T06:22:31;53.65;;;28.60;;
22916;SDS011;11624;53.250;7.456;2022-11-14T06:25:19;53.22;;;27.65;;
22916;SDS011;11624;53.250;7.456;2022-11-14T06:28:06;51.42;;;27.70;;
22916;SDS011;11624;53.250;7.456;2022-11-14T06:30:56;54.13;;;28.70;;
22916;SDS011;11624;53.250;7.456;2022-11-14T06:33:44;55.28;;;28.95;;
22916;SDS011;11624;53.250;7.456;2022-11-14T06:36:32;57.15;;;29.02;;
22916;SDS011;11624;53.250;7.456;2022-11-14T06:39:19;57.88;;;30.23;;
22916;SDS011;11624;53.250;7.456;2022-11-14T06:42:05;56.72;;;28.38;;
22916;SDS011;11624;53.250;7.456;2022-11-14T06:44:52;53.13;;;28.45;;
22916;SDS011;11624;53.250;7.456;2022-11-14T06:47:40;62.80;;;29.15;;
22916;SDS011;11624;53.250;7.456;2022-11-14T06:50:27;57.47;;;28.95;;
22916;SDS011;11624;53.250;7.456;2022-11-14T06:53:14;53.53;;;28.40;;
22916;SDS011;11624;53.250;7.456;2022-11-14T06:56:02;53.33;;;28.13;;
22916;SDS011;11624;53.250;7.456;2022-11-14T06:58:50;52.27;;;28.63;;
22916;SDS011;11624;53.250;7.456;2022-11-14T07:01:37;55.25;;;29.77;;
22916;SDS011;11624;53.250;7.456;2022-11-14T07:04:25;54.00;;;28.38;;
22916;SDS011;11624;53.250;7.456;2022-11-14T07:07:12;57.97;;;29.30;;
22916;SDS011;11624;53.250;7.456;2022-11-14T07:09:59;56.97;;;28.60;;
22916;SDS011;11624;53.250;7.456;2022-11-14T07:12:46;57.30;;;30.00;;
22916;SDS011;11624;53.250;7.456;2022-11-14T07:15:33;54.30;;;28.40;;
22916;SDS011;11624;53.250;7.456;2022-11-14T07:18:19;57.87;;;28.37;;
22916;SDS011;11624;53.250;7.456;2022-11-14T07:21:08;53.83;;;28.33;;
22916;SDS011;11624;53.250;7.456;2022-11-14T07:23:57;54.85;;;29.13;;
22916;SDS011;11624;53.250;7.456;2022-11-14T07:26:44;57.47;;;29.00;;
22916;SDS011;11624;53.250;7.456;2022-11-14T07:29:31;55.22;;;29.38;;
22916;SDS011;11624;53.250;7.456;2022-11-14T07:32:18;57.13;;;28.95;;
22916;SDS011;11624;53.250;7.456;2022-11-14T07:35:05;57.83;;;31.20;;
22916;SDS011;11624;53.250;7.456;2022-11-14T07:37:57;56.85;;;28.73;;
22916;SDS011;11624;53.250;7.456;2022-11-14T07:40:53;57.72;;;29.88;;
22916;SDS011;11624;53.250;7.456;2022-11-14T07:43:44;58.15;;;30.00;;
22916;SDS011;11624;53.250;7.456;2022-11-14T07:46:31;56.88;;;29.52;;
22916;SDS011;11624;53.250;7.456;2022-11-14T07:49:18;56.13;;;31.13;;
22916;SDS011;11624;53.250;7.456;2022-11-14T07:52:04;54.97;;;28.63;;
22916;SDS011;11624;53.250;7.456;2022-11-14T07:54:53;58.00;;;29.15;;
22916;SDS011;11624;53.250;7.456;2022-11-14T07:57:40;54.47;;;28.98;;
22916;SDS011;11624;53.250;7.456;2022-11-14T08:00:32;56.28;;;29.27;;
22916;SDS011;11624;53.250;7.456;2022-11-14T08:03:19;56.58;;;28.02;;
22916;SDS011;11624;53.250;7.456;2022-11-14T08:06:06;54.00;;;28.92;;
22916;SDS011;11624;53.250;7.456;2022-11-14T08:08:55;56.67;;;28.10;;
22916;SDS011;11624;53.250;7.456;2022-11-14T08:11:43;56.97;;;29.52;;
22916;SDS011;11624;53.250;7.456;2022-11-14T08:14:33;53.78;;;28.25;;
22916;SDS011;11624;53.250;7.456;2022-11-14T08:17:20;51.63;;;26.92;;
22916;SDS011;11624;53.250;7.456;2022-11-14T08:20:08;54.95;;;28.35;;
22916;SDS011;11624;53.250;7.456;2022-11-14T08:23:00;57.47;;;28.63;;
22916;SDS011;11624;53.250;7.456;2022-11-14T08:25:47;53.72;;;28.85;;
22916;SDS011;11624;53.250;7.456;2022-11-14T08:28:35;53.25;;;27.50;;
22916;SDS011;11624;53.250;7.456;2022-11-14T08:31:22;56.60;;;27.52;;
22916;SDS011;11624;53.250;7.456;2022-11-14T08:34:10;54.33;;;27.70;;
22916;SDS011;11624;53.250;7.456;2022-11-14T08:36:56;51.40;;;27.92;;
22916;SDS011;11624;53.250;7.456;2022-11-14T08:39:44;56.55;;;28.05;;
22916;SDS011;11624;53.250;7.456;2022-11-14T08:42:31;56.55;;;29.05;;
22916;SDS011;11624;53.250;7.456;2022-11-14T08:45:18;59.03;;;29.45;;
22916;SDS011;11624;53.250;7.456;2022-11-14T08:48:05;55.97;;;28.48;;
22916;SDS011;11624;53.250;7.456;2022-11-14T08:50:52;53.22;;;28.40;;
22916;SDS011;11624;53.250;7.456;2022-11-14T08:53:39;49.10;;;26.08;;
22916;SDS011;11624;53.250;7.456;2022-11-14T08:56:25;52.30;;;27.23;;
22916;SDS011;11624;53.250;7.456;2022-11-14T08:59:12;49.78;;;26.40;;
22916;SDS011;11624;53.250;7.456;2022-11-14T09:02:00;54.70;;;27.90;;
22916;SDS011;11624;53.250;7.456;2022-11-14T09:04:47;53.70;;;27.08;;
22916;SDS011;11624;53.250;7.456;2022-11-14T09:07:34;51.38;;;27.00;;
22916;SDS011;11624;53.250;7.456;2022-11-14T09:10:21;53.50;;;27.10;;
22916;SDS011;11624;53.250;7.456;2022-11-14T09:13:08;48.78;;;27.20;;
22916;SDS011;11624;53.250;7.456;2022-11-14T09:15:55;47.80;;;26.70;;
22916;SDS011;11624;53.250;7.456;2022-11-14T09:18:43;45.88;;;25.50;;
22916;SDS011;11624;53.250;7.456;2022-11-14T09:21:29;45.05;;;26.13;;
22916;SDS011;11624;53.250;7.456;2022-11-14T09:24:17;50.08;;;25.92;;
22916;SDS011;11624;53.250;7.456;2022-11-14T09:27:03;52.10;;;27.00;;
22916;SDS011;11624;53.250;7.456;2022-11-14T09:29:50;47.17;;;25.92;;
22916;SDS011;11624;53.250;7.456;2022-11-14T09:32:36;50.45;;;26.38;;
22916;SDS011;11624;53.250;7.456;2022-11-14T09:35:25;46.38;;;25.17;;
22916;SDS011;11624;53.250;7.456;2022-11-14T09:38:11;50.05;;;26.80;;
22916;SDS011;11624;53.250;7.456;2022-11-14T09:41:01;48.90;;;25.67;;
22916;SDS011;11624;53.250;7.456;2022-11-14T09:47:12;49.40;;;26.45;;
22916;SDS011;11624;53.250;7.456;2022-11-14T09:50:06;50.30;;;27.02;;
22916;SDS011;11624;53.250;7.456;2022-11-14T09:53:02;54.17;;;27.30;;
22916;SDS011;11624;53.250;7.456;2022-11-14T09:55:52;49.33;;;25.92;;
22916;SDS011;11624;53.250;7.456;2022-11-14T09:58:39;50.35;;;27.52;;
22916;SDS011;11624;53.250;7.456;2022-11-14T10:01:31;53.80;;;26.17;;
22916;SDS011;11624;53.250;7.456;2022-11-14T10:04:28;48.58;;;25.50;;
22916;SDS011;11624;53.250;7.456;2022-11-14T10:07:25;44.05;;;24.88;;
22916;SDS011;11624;53.250;7.456;2022-11-14T10:10:25;49.38;;;24.88;;
22916;SDS011;11624;53.250;7.456;2022-11-14T10:13:35;46.33;;;25.20;;
22916;SDS011;11624;53.250;7.456;2022-11-14T10:16:33;46.70;;;24.92;;
22916;SDS011;11624;53.250;7.456;2022-11-14T10:19:28;47.15;;;25.52;;
22916;SDS011;11624;53.250;7.456;2022-11-14T10:22:33;44.90;;;24.77;;
22916;SDS011;11624;53.250;7.456;2022-11-14T10:25:35;44.85;;;25.52;;
22916;SDS011;11624;53.250;7.456;2022-11-14T10:28:39;45.30;;;24.88;;
22916;SDS011;11624;53.250;7.456;2022-11-14T10:31:38;46.28;;;24.85;;
22916;SDS011;11624;53.250;7.456;2022-11-14T10:34:33;44.22;;;23.67;;
22916;SDS011;11624;53.250;7.456;2022-11-14T10:37:26;44.45;;;24.75;;
22916;SDS011;11624;53.250;7.456;2022-11-14T10:40:18;46.55;;;25.35;;
22916;SDS011;11624;53.250;7.456;2022-11-14T10:43:15;44.97;;;24.92;;
22916;SDS011;11624;53.250;7.456;2022-11-14T10:46:08;42.50;;;24.15;;
22916;SDS011;11624;53.250;7.456;2022-11-14T10:48:58;46.20;;;24.83;;
22916;SDS011;11624;53.250;7.456;2022-11-14T10:51:46;45.80;;;25.95;;
22916;SDS011;11624;53.250;7.456;2022-11-14T10:54:38;44.00;;;24.70;;
22916;SDS011;11624;53.250;7.456;2022-11-14T10:57:30;43.17;;;24.27;;
22916;SDS011;11624;53.250;7.456;2022-11-14T11:00:20;43.22;;;24.60;;
22916;SDS011;11624;53.250;7.456;2022-11-14T11:03:07;43.67;;;23.55;;
22916;SDS011;11624;53.250;7.456;2022-11-14T11:05:54;45.03;;;24.60;;
22916;SDS011;11624;53.250;7.456;2022-11-14T11:08:41;41.65;;;23.40;;
22916;SDS011;11624;53.250;7.456;2022-11-14T11:11:51;42.42;;;23.17;;
22916;SDS011;11624;53.250;7.456;2022-11-14T11:14:42;43.47;;;24.80;;
22916;SDS011;11624;53.250;7.456;2022-11-14T11:17:30;41.42;;;23.23;;
22916;SDS011;11624;53.250;7.456;2022-11-14T11:20:27;42.25;;;23.98;;
22916;SDS011;11624;53.250;7.456;2022-11-14T11:23:17;40.85;;;23.13;;
22916;SDS011;11624;53.250;7.456;2022-11-14T11:26:14;41.55;;;23.63;;
22916;SDS011;11624;53.250;7.456;2022-11-14T11:29:04;40.33;;;23.45;;
22916;SDS011;11624;53.250;7.456;2022-11-14T11:31:54;43.30;;;24.05;;
22916;SDS011;11624;53.250;7.456;2022-11-14T11:34:44;40.25;;;23.27;;
22916;SDS011;11624;53.250;7.456;2022-11-14T11:37:32;40.83;;;22.85;;
22916;SDS011;11624;53.250;7.456;2022-11-14T11:40:24;37.45;;;22.48;;
22916;SDS011;11624;53.250;7.456;2022-11-14T11:43:15;40.10;;;23.27;;
22916;SDS011;11624;53.250;7.456;2022-11-14T11:46:24;39.72;;;22.42;;
22916;SDS011;11624;53.250;7.456;2022-11-14T11:49:19;40.78;;;23.77;;
22916;SDS011;11624;53.250;7.456;2022-11-14T11:52:20;40.42;;;22.58;;
22916;SDS011;11624;53.250;7.456;2022-11-14T11:55:15;41.80;;;23.20;;
22916;SDS011;11624;53.250;7.456;2022-11-14T11:58:09;37.05;;;21.38;;
22916;SDS011;11624;53.250;7.456;2022-11-14T12:01:01;36.10;;;21.30;;
22916;SDS011;11624;53.250;7.456;2022-11-14T12:03:49;40.03;;;23.45;;
22916;SDS011;11624;53.250;7.456;2022-11-14T12:06:38;39.90;;;22.98;;
22916;SDS011;11624;53.250;7.456;2022-11-14T12:09:35;38.83;;;22.10;;
22916;SDS011;11624;53.250;7.456;2022-11-14T12:12:53;39.38;;;22.52;;
22916;SDS011;11624;53.250;7.456;2022-11-14T12:16:02;37.25;;;20.55;;
22916;SDS011;11624;53.250;7.456;2022-11-14T12:19:06;41.38;;;22.27;;
22916;SDS011;11624;53.250;7.456;2022-11-14T12:25:36;39.10;;;22.42;;
22916;SDS011;11624;53.250;7.456;2022-11-14T12:28:34;43.05;;;23.55;;
22916;SDS011;11624;53.250;7.456;2022-11-14T12:31:43;43.17;;;24.08;;
22916;SDS011;11624;53.250;7.456;2022-11-14T12:34:32;39.05;;;21.92;;
22916;SDS011;11624;53.250;7.456;2022-11-14T12:37:25;40.55;;;22.88;;
22916;SDS011;11624;53.250;7.456;2022-11-14T12:40:19;47.58;;;26.98;;
22916;SDS011;11624;53.250;7.456;2022-11-14T12:43:25;39.03;;;22.70;;
22916;SDS011;11624;53.250;7.456;2022-11-14T12:46:21;41.65;;;23.58;;
22916;SDS011;11624;53.250;7.456;2022-11-14T12:52:43;35.33;;;20.73;;
22916;SDS011;11624;53.250;7.456;2022-11-14T12:55:55;42.92;;;21.58;;
22916;SDS011;11624;53.250;7.456;2022-11-14T12:59:03;40.03;;;21.70;;
22916;SDS011;11624;53.250;7.456;2022-11-14T13:05:21;36.35;;;20.45;;
22916;SDS011;11624;53.250;7.456;2022-11-14T13:11:34;36.33;;;20.70;;
22916;SDS011;11624;53.250;7.456;2022-11-14T13:14:51;37.58;;;21.50;;
22916;SDS011;11624;53.250;7.456;2022-11-14T13:18:08;39.33;;;21.90;;
22916;SDS011;11624;53.250;7.456;2022-11-14T13:21:18;39.17;;;21.23;;
22916;SDS011;11624;53.250;7.456;2022-11-14T13:24:40;37.88;;;21.77;;
22916;SDS011;11624;53.250;7.456;2022-11-14T13:31:42;37.10;;;20.20;;
22916;SDS011;11624;53.250;7.456;2022-11-14T13:34:42;34.88;;;20.55;;
22916;SDS011;11624;53.250;7.456;2022-11-14T13:37:39;39.20;;;21.10;;
22916;SDS011;11624;53.250;7.456;2022-11-14T13:40:47;36.88;;;20.58;;
22916;SDS011;11624;53.250;7.456;2022-11-14T13:43:47;39.58;;;21.58;;
22916;SDS011;11624;53.250;7.456;2022-11-14T13:46:49;38.83;;;21.15;;
22916;SDS011;11624;53.250;7.456;2022-11-14T13:49:53;39.20;;;21.88;;
22916;SDS011;11624;53.250;7.456;2022-11-14T13:52:45;39.10;;;22.38;;
22916;SDS011;11624;53.250;7.456;2022-11-14T13:55:37;39.03;;;22.30;;
22916;SDS011;11624;53.250;7.456;2022-11-14T13:58:58;42.70;;;23.05;;
22916;SDS011;11624;53.250;7.456;2022-11-14T14:02:14;40.85;;;22.52;;
22916;SDS011;11624;53.250;7.456;2022-11-14T14:05:15;40.13;;;22.90;;
22916;SDS011;11624;53.250;7.456;2022-11-14T14:08:16;43.03;;;23.08;;
22916;SDS011;11624;53.250;7.456;2022-11-14T14:11:17;40.85;;;22.40;;
22916;SDS011;11624;53.250;7.456;2022-11-14T14:14:18;40.72;;;21.98;;
22916;SDS011;11624;53.250;7.456;2022-11-14T14:17:20;42.05;;;22.25;;
22916;SDS011;11624;53.250;7.456;2022-11-14T14:20:15;41.83;;;22.73;;
22916;SDS011;11624;53.250;7.456;2022-11-14T14:23:11;38.08;;;22.05;;
22916;SDS011;11624;53.250;7.456;2022-11-14T14:26:11;39.88;;;21.67;;
22916;SDS011;11624;53.250;7.456;2022-11-14T14:29:11;41.03;;;22.52;;
22916;SDS011;11624;53.250;7.456;2022-11-14T14:32:09;42.63;;;22.20;;
22916;SDS011;11624;53.250;7.456;2022-11-14T14:34:59;37.28;;;21.65;;
22916;SDS011;11624;53.250;7.456;2022-11-14T14:37:58;38.15;;;21.67;;
22916;SDS011;11624;53.250;7.456;2022-11-14T14:40:45;41.42;;;22.48;;
22916;SDS011;11624;53.250;7.456;2022-11-14T14:43:33;39.15;;;22.08;;
22916;SDS011;11624;53.250;7.456;2022-11-14T14:46:30;42.50;;;22.45;;
22916;SDS011;11624;53.250;7.456;2022-11-14T14:49:19;39.65;;;22.17;;
22916;SDS011;11624;53.250;7.456;2022-11-14T14:52:20;44.17;;;24.88;;
22916;SDS011;11624;53.250;7.456;2022-11-14T14:55:17;45.63;;;24.73;;
22916;SDS011;11624;53.250;7.456;2022-11-14T14:58:13;44.08;;;24.17;;
22916;SDS011;11624;53.250;7.456;2022-11-14T15:01:08;47.83;;;24.58;;
22916;SDS011;11624;53.250;7.456;2022-11-14T15:03:59;50.80;;;25.35;;
22916;SDS011;11624;53.250;7.456;2022-11-14T15:06:48;53.55;;;29.73;;
22916;SDS011;11624;53.250;7.456;2022-11-14T15:09:37;47.55;;;26.38;;
22916;SDS011;11624;53.250;7.456;2022-11-14T15:12:37;47.58;;;25.23;;
22916;SDS011;11624;53.250;7.456;2022-11-14T15:15:26;50.13;;;26.05;;
22916;SDS011;11624;53.250;7.456;2022-11-14T15:18:15;50.80;;;26.65;;
22916;SDS011;11624;53.250;7.456;2022-11-14T15:21:10;51.58;;;29.10;;
22916;SDS011;11624;53.250;7.456;2022-11-14T15:24:02;52.45;;;26.73;;
22916;SDS011;11624;53.250;7.456;2022-11-14T15:27:01;48.30;;;25.17;;
22916;SDS011;11624;53.250;7.456;2022-11-14T15:29:51;55.97;;;29.90;;
22916;SDS011;11624;53.250;7.456;2022-11-14T15:32:45;56.33;;;30.08;;
22916;SDS011;11624;53.250;7.456;2022-11-14T15:35:34;48.80;;;27.20;;
22916;SDS011;11624;53.250;7.456;2022-11-14T15:38:21;45.17;;;24.48;;
22916;SDS011;11624;53.250;7.456;2022-11-14T15:41:29;48.55;;;25.92;;
22916;SDS011;11624;53.250;7.456;2022-11-14T15:47:21;47.03;;;25.02;;
22916;SDS011;11624;53.250;7.456;2022-11-14T15:50:22;51.35;;;27.02;;
22916;SDS011;11624;53.250;7.456;2022-11-14T15:53:17;54.85;;;29.67;;
22916;SDS011;11624;53.250;7.456;2022-11-14T15:56:09;56.08;;;30.40;;
22916;SDS011;11624;53.250;7.456;2022-11-14T15:58:57;51.15;;;26.20;;
22916;SDS011;11624;53.250;7.456;2022-11-14T16:01:46;50.50;;;25.33;;
22916;SDS011;11624;53.250;7.456;2022-11-14T16:04:35;53.83;;;26.27;;
22916;SDS011;11624;53.250;7.456;2022-11-14T16:07:31;53.22;;;27.27;;
22916;SDS011;11624;53.250;7.456;2022-11-14T16:10:18;50.22;;;26.70;;
22916;SDS011;11624;53.250;7.456;2022-11-14T16:13:06;49.78;;;25.77;;
22916;SDS011;11624;53.250;7.456;2022-11-14T16:15:55;51.63;;;26.85;;
22916;SDS011;11624;53.250;7.456;2022-11-14T16:18:43;55.85;;;26.80;;
22916;SDS011;11624;53.250;7.456;2022-11-14T16:21:29;51.20;;;26.13;;
22916;SDS011;11624;53.250;7.456;2022-11-14T16:24:17;51.58;;;26.05;;
22916;SDS011;11624;53.250;7.456;2022-11-14T16:27:05;51.67;;;26.88;;
22916;SDS011;11624;53.250;7.456;2022-11-14T16:29:52;53.45;;;27.20;;
22916;SDS011;11624;53.250;7.456;2022-11-14T16:32:39;53.33;;;27.13;;
22916;SDS011;11624;53.250;7.456;2022-11-14T16:35:31;54.88;;;28.30;;
22916;SDS011;11624;53.250;7.456;2022-11-14T16:38:18;55.15;;;27.67;;
22916;SDS011;11624;53.250;7.456;2022-11-14T16:41:05;55.45;;;27.55;;
22916;SDS011;11624;53.250;7.456;2022-11-14T16:43:53;57.70;;;28.30;;
22916;SDS011;11624;53.250;7.456;2022-11-14T16:46:40;56.08;;;28.23;;
22916;SDS011;11624;53.250;7.456;2022-11-14T16:49:27;52.38;;;26.17;;
22916;SDS011;11624;53.250;7.456;2022-11-14T16:52:15;55.97;;;29.70;;
22916;SDS011;11624;53.250;7.456;2022-11-14T16:55:03;60.00;;;28.55;;
22916;SDS011;11624;53.250;7.456;2022-11-14T16:57:51;56.78;;;27.95;;
22916;SDS011;11624;53.250;7.456;2022-11-14T17:00:41;62.83;;;29.98;;
22916;SDS011;11624;53.250;7.456;2022-11-14T17:03:27;54.15;;;27.30;;
22916;SDS011;11624;53.250;7.456;2022-11-14T17:06:17;53.85;;;26.50;;
22916;SDS011;11624;53.250;7.456;2022-11-14T17:09:06;59.10;;;28.95;;